sensor_id;sensor_type;location;lat;lon;timestamp;temperature;humidity
702;DHT22;334;48.808;9.222;2022-11-18T00:00:15;11.90;12.50
702;DHT22;334;48.808;9.222;2022-11-18T00:01:22;11.90;12.30
702;DHT22;334;48.808;9.222;2022-11-18T00:02:24;11.90;12.00
702;DHT22;334;48.808;9.222;2022-11-18T00:03:27;12.00;12.10
702;DHT22;334;48.808;9.222;2022-11-18T00:04:29;11.90;12.00
702;DHT22;334;48.808;9.222;2022-11-18T00:05:32;12.00;12.00
702;DHT22;334;48.808;9.222;2022-11-18T00:06:34;12.00;12.00
702;DHT22;334;48.808;9.222;2022-11-18T00:07:36;12.00;11.80
702;DHT22;334;48.808;9.222;2022-11-18T00:08:44;12.00;11.70
702;DHT22;334;48.808;9.222;2022-11-18T00:09:47;12.00;11.50
702;DHT22;334;48.808;9.222;2022-11-18T00:10:49;12.00;11.70
702;DHT22;334;48.808;9.222;2022-11-18T00:11:51;12.00;11.90
702;DHT22;334;48.808;9.222;2022-11-18T00:13:12;12.00;12.00
702;DHT22;334;48.808;9.222;2022-11-18T00:14:33;11.90;12.20
702;DHT22;334;48.808;9.222;2022-11-18T00:15:35;11.90;12.10
702;DHT22;334;48.808;9.222;2022-11-18T00:16:37;11.90;12.30
702;DHT22;334;48.808;9.222;2022-11-18T00:17:39;11.90;12.20
702;DHT22;334;48.808;9.222;2022-11-18T00:18:41;11.90;12.00
702;DHT22;334;48.808;9.222;2022-11-18T00:19:43;11.90;12.30
702;DHT22;334;48.808;9.222;2022-11-18T00:20:45;11.90;12.40
702;DHT22;334;48.808;9.222;2022-11-18T00:21:48;11.90;12.50
702;DHT22;334;48.808;9.222;2022-11-18T00:22:50;11.90;12.70
702;DHT22;334;48.808;9.222;2022-11-18T00:23:52;11.90;12.80
702;DHT22;334;48.808;9.222;2022-11-18T00:24:54;11.90;12.80
702;DHT22;334;48.808;9.222;2022-11-18T00:26:03;12.10;13.00
702;DHT22;334;48.808;9.222;2022-11-18T00:27:05;11.80;12.90
702;DHT22;334;48.808;9.222;2022-11-18T00:28:07;11.90;13.00
702;DHT22;334;48.808;9.222;2022-11-18T00:29:09;12.00;12.60
702;DHT22;334;48.808;9.222;2022-11-18T00:30:12;11.80;12.90
702;DHT22;334;48.808;9.222;2022-11-18T00:31:15;11.80;12.60
702;DHT22;334;48.808;9.222;2022-11-18T00:32:18;11.80;12.40
702;DHT22;334;48.808;9.222;2022-11-18T00:33:20;11.90;12.30
702;DHT22;334;48.808;9.222;2022-11-18T00:34:23;11.90;12.60
702;DHT22;334;48.808;9.222;2022-11-18T00:35:25;11.90;12.40
702;DHT22;334;48.808;9.222;2022-11-18T00:36:28;11.90;12.70
702;DHT22;334;48.808;9.222;2022-11-18T00:37:30;11.90;12.50
702;DHT22;334;48.808;9.222;2022-11-18T00:38:31;11.90;12.50
702;DHT22;334;48.808;9.222;2022-11-18T00:39:33;11.90;13.40
702;DHT22;334;48.808;9.222;2022-11-18T00:40:35;11.90;12.80
702;DHT22;334;48.808;9.222;2022-11-18T00:41:37;11.90;12.50
702;DHT22;334;48.808;9.222;2022-11-18T00:42:58;12.10;12.60
702;DHT22;334;48.808;9.222;2022-11-18T00:44:00;11.90;12.40
702;DHT22;334;48.808;9.222;2022-11-18T00:45:11;11.90;12.50
702;DHT22;334;48.808;9.222;2022-11-18T00:46:13;11.90;12.70
702;DHT22;334;48.808;9.222;2022-11-18T00:47:15;11.80;12.70
702;DHT22;334;48.808;9.222;2022-11-18T00:48:17;11.90;12.90
702;DHT22;334;48.808;9.222;2022-11-18T00:49:22;11.90;12.80
702;DHT22;334;48.808;9.222;2022-11-18T00:50:25;11.90;12.80
702;DHT22;334;48.808;9.222;2022-11-18T00:51:27;11.90;12.90
702;DHT22;334;48.808;9.222;2022-11-18T00:52:29;11.90;12.50
702;DHT22;334;48.808;9.222;2022-11-18T00:53:31;11.90;12.80
702;DHT22;334;48.808;9.222;2022-11-18T00:54:33;11.90;13.00
702;DHT22;334;48.808;9.222;2022-11-18T00:55:35;11.90;13.20
702;DHT22;334;48.808;9.222;2022-11-18T00:56:37;11.90;13.20
702;DHT22;334;48.808;9.222;2022-11-18T00:57:40;11.90;13.20
702;DHT22;334;48.808;9.222;2022-11-18T00:58:42;11.90;13.20
702;DHT22;334;48.808;9.222;2022-11-18T00:59:44;11.90;13.10
702;DHT22;334;48.808;9.222;2022-11-18T01:00:51;11.90;13.00
702;DHT22;334;48.808;9.222;2022-11-18T01:01:53;11.90;13.30
702;DHT22;334;48.808;9.222;2022-11-18T01:02:55;11.90;13.50
702;DHT22;334;48.808;9.222;2022-11-18T01:03:57;11.90;13.30
702;DHT22;334;48.808;9.222;2022-11-18T01:04:59;11.90;13.20
702;DHT22;334;48.808;9.222;2022-11-18T01:06:01;11.80;12.90
702;DHT22;334;48.808;9.222;2022-11-18T01:07:03;11.80;13.80
702;DHT22;334;48.808;9.222;2022-11-18T01:08:06;11.80;13.70
702;DHT22;334;48.808;9.222;2022-11-18T01:09:08;11.90;14.00
702;DHT22;334;48.808;9.222;2022-11-18T01:10:10;11.90;13.50
702;DHT22;334;48.808;9.222;2022-11-18T01:11:12;11.90;13.40
702;DHT22;334;48.808;9.222;2022-11-18T01:12:33;11.90;13.40
702;DHT22;334;48.808;9.222;2022-11-18T01:13:55;11.90;13.90
702;DHT22;334;48.808;9.222;2022-11-18T01:14:58;11.90;14.00
702;DHT22;334;48.808;9.222;2022-11-18T01:16:00;11.90;13.90
702;DHT22;334;48.808;9.222;2022-11-18T01:17:02;11.90;14.00
702;DHT22;334;48.808;9.222;2022-11-18T01:18:04;11.90;13.80
702;DHT22;334;48.808;9.222;2022-11-18T01:19:05;11.90;13.80
702;DHT22;334;48.808;9.222;2022-11-18T01:20:10;12.00;13.60
702;DHT22;334;48.808;9.222;2022-11-18T01:21:12;11.90;13.50
702;DHT22;334;48.808;9.222;2022-11-18T01:22:14;11.90;13.60
702;DHT22;334;48.808;9.222;2022-11-18T01:23:18;11.90;13.40
702;DHT22;334;48.808;9.222;2022-11-18T01:24:20;11.90;13.60
702;DHT22;334;48.808;9.222;2022-11-18T01:25:22;12.10;13.70
702;DHT22;334;48.808;9.222;2022-11-18T01:26:27;12.00;13.20
702;DHT22;334;48.808;9.222;2022-11-18T01:27:28;11.90;12.80
702;DHT22;334;48.808;9.222;2022-11-18T01:28:31;12.00;13.00
702;DHT22;334;48.808;9.222;2022-11-18T01:29:33;11.90;13.20
702;DHT22;334;48.808;9.222;2022-11-18T01:30:38;11.90;13.70
702;DHT22;334;48.808;9.222;2022-11-18T01:31:41;11.90;13.30
702;DHT22;334;48.808;9.222;2022-11-18T01:33:03;11.90;13.50
702;DHT22;334;48.808;9.222;2022-11-18T01:34:06;11.90;13.60
702;DHT22;334;48.808;9.222;2022-11-18T01:35:08;11.90;14.00
702;DHT22;334;48.808;9.222;2022-11-18T01:36:22;11.90;14.00
702;DHT22;334;48.808;9.222;2022-11-18T01:37:24;11.90;14.00
702;DHT22;334;48.808;9.222;2022-11-18T01:38:27;11.90;14.00
702;DHT22;334;48.808;9.222;2022-11-18T01:39:29;11.90;14.00
702;DHT22;334;48.808;9.222;2022-11-18T01:40:33;12.00;14.00
702;DHT22;334;48.808;9.222;2022-11-18T01:41:35;11.90;13.90
702;DHT22;334;48.808;9.222;2022-11-18T01:42:37;12.00;14.00
702;DHT22;334;48.808;9.222;2022-11-18T01:43:59;12.00;14.00
702;DHT22;334;48.808;9.222;2022-11-18T01:45:14;12.00;13.80
702;DHT22;334;48.808;9.222;2022-11-18T01:46:21;12.00;13.70
702;DHT22;334;48.808;9.222;2022-11-18T01:47:26;12.00;13.60
702;DHT22;334;48.808;9.222;2022-11-18T01:48:33;12.10;13.70
702;DHT22;334;48.808;9.222;2022-11-18T01:49:35;11.90;14.00
702;DHT22;334;48.808;9.222;2022-11-18T01:50:45;11.90;14.00
702;DHT22;334;48.808;9.222;2022-11-18T01:51:54;11.90;14.00
702;DHT22;334;48.808;9.222;2022-11-18T01:53:03;11.90;14.60
702;DHT22;334;48.808;9.222;2022-11-18T01:54:08;11.90;14.00
702;DHT22;334;48.808;9.222;2022-11-18T01:55:22;11.90;14.00
702;DHT22;334;48.808;9.222;2022-11-18T01:56:41;11.90;14.40
702;DHT22;334;48.808;9.222;2022-11-18T01:57:45;11.90;14.70
702;DHT22;334;48.808;9.222;2022-11-18T01:58:55;12.00;14.50
702;DHT22;334;48.808;9.222;2022-11-18T02:00:00;11.90;14.20
702;DHT22;334;48.808;9.222;2022-11-18T02:01:04;11.90;14.50
702;DHT22;334;48.808;9.222;2022-11-18T02:02:11;11.90;14.40
702;DHT22;334;48.808;9.222;2022-11-18T02:03:15;12.10;14.60
702;DHT22;334;48.808;9.222;2022-11-18T02:04:17;11.90;14.80
702;DHT22;334;48.808;9.222;2022-11-18T02:05:20;11.90;14.90
702;DHT22;334;48.808;9.222;2022-11-18T02:06:23;11.90;14.90
702;DHT22;334;48.808;9.222;2022-11-18T02:07:27;11.90;14.40
702;DHT22;334;48.808;9.222;2022-11-18T02:08:30;11.90;14.20
702;DHT22;334;48.808;9.222;2022-11-18T02:09:32;12.00;14.10
702;DHT22;334;48.808;9.222;2022-11-18T02:10:40;12.00;14.10
702;DHT22;334;48.808;9.222;2022-11-18T02:11:43;12.00;14.10
702;DHT22;334;48.808;9.222;2022-11-18T02:12:52;12.00;14.30
702;DHT22;334;48.808;9.222;2022-11-18T02:13:55;12.00;14.00
702;DHT22;334;48.808;9.222;2022-11-18T02:14:58;12.00;14.00
702;DHT22;334;48.808;9.222;2022-11-18T02:16:09;12.00;14.00
702;DHT22;334;48.808;9.222;2022-11-18T02:18:59;12.00;14.30
702;DHT22;334;48.808;9.222;2022-11-18T02:20:27;11.90;14.50
702;DHT22;334;48.808;9.222;2022-11-18T02:25:19;12.00;14.60
702;DHT22;334;48.808;9.222;2022-11-18T02:30:02;12.00;14.20
702;DHT22;334;48.808;9.222;2022-11-18T02:31:14;12.00;14.60
702;DHT22;334;48.808;9.222;2022-11-18T02:32:31;12.00;14.10
702;DHT22;334;48.808;9.222;2022-11-18T02:35:00;12.00;14.50
702;DHT22;334;48.808;9.222;2022-11-18T02:36:18;12.00;14.70
702;DHT22;334;48.808;9.222;2022-11-18T02:38:17;12.00;14.70
702;DHT22;334;48.808;9.222;2022-11-18T02:39:05;12.00;14.70
702;DHT22;334;48.808;9.222;2022-11-18T02:40:15;12.00;14.50
702;DHT22;334;48.808;9.222;2022-11-18T02:41:21;12.00;14.00
702;DHT22;334;48.808;9.222;2022-11-18T02:42:25;12.00;14.20
702;DHT22;334;48.808;9.222;2022-11-18T02:43:31;12.00;14.10
702;DHT22;334;48.808;9.222;2022-11-18T02:44:37;12.00;14.00
702;DHT22;334;48.808;9.222;2022-11-18T02:45:43;12.00;14.10
702;DHT22;334;48.808;9.222;2022-11-18T02:46:50;12.00;14.00
702;DHT22;334;48.808;9.222;2022-11-18T02:47:55;12.00;14.00
702;DHT22;334;48.808;9.222;2022-11-18T02:49:00;12.00;14.00
702;DHT22;334;48.808;9.222;2022-11-18T02:50:07;12.00;14.00
702;DHT22;334;48.808;9.222;2022-11-18T02:51:11;12.00;14.00
702;DHT22;334;48.808;9.222;2022-11-18T02:52:17;12.00;14.00
702;DHT22;334;48.808;9.222;2022-11-18T02:53:21;12.00;14.00
702;DHT22;334;48.808;9.222;2022-11-18T02:54:27;12.00;14.00
702;DHT22;334;48.808;9.222;2022-11-18T02:55:33;12.00;14.20
702;DHT22;334;48.808;9.222;2022-11-18T02:56:36;11.90;14.70
702;DHT22;334;48.808;9.222;2022-11-18T02:57:42;11.90;14.80
702;DHT22;334;48.808;9.222;2022-11-18T02:58:45;12.00;15.10
702;DHT22;334;48.808;9.222;2022-11-18T02:59:48;12.00;14.70
702;DHT22;334;48.808;9.222;2022-11-18T03:00:58;12.00;14.40
702;DHT22;334;48.808;9.222;2022-11-18T03:02:02;11.90;14.70
702;DHT22;334;48.808;9.222;2022-11-18T03:03:32;11.90;14.70
702;DHT22;334;48.808;9.222;2022-11-18T03:04:34;11.90;14.70
702;DHT22;334;48.808;9.222;2022-11-18T03:05:50;11.90;14.60
702;DHT22;334;48.808;9.222;2022-11-18T03:07:17;11.90;14.80
702;DHT22;334;48.808;9.222;2022-11-18T03:08:25;11.90;15.00
702;DHT22;334;48.808;9.222;2022-11-18T03:09:34;11.90;14.70
702;DHT22;334;48.808;9.222;2022-11-18T03:10:45;11.90;15.10
702;DHT22;334;48.808;9.222;2022-11-18T03:13:23;11.90;15.20
702;DHT22;334;48.808;9.222;2022-11-18T03:14:45;11.90;15.00
702;DHT22;334;48.808;9.222;2022-11-18T03:16:03;11.90;15.20
702;DHT22;334;48.808;9.222;2022-11-18T03:17:12;11.90;15.50
702;DHT22;334;48.808;9.222;2022-11-18T03:18:49;12.10;15.50
702;DHT22;334;48.808;9.222;2022-11-18T03:21:18;11.80;15.60
702;DHT22;334;48.808;9.222;2022-11-18T03:22:34;11.80;15.70
702;DHT22;334;48.808;9.222;2022-11-18T03:23:54;11.80;15.90
702;DHT22;334;48.808;9.222;2022-11-18T03:25:10;11.80;16.20
702;DHT22;334;48.808;9.222;2022-11-18T03:26:25;11.80;16.60
702;DHT22;334;48.808;9.222;2022-11-18T03:27:58;11.80;15.80
702;DHT22;334;48.808;9.222;2022-11-18T03:29:06;11.80;15.40
702;DHT22;334;48.808;9.222;2022-11-18T03:30:14;11.80;15.40
702;DHT22;334;48.808;9.222;2022-11-18T03:31:24;11.80;15.00
702;DHT22;334;48.808;9.222;2022-11-18T03:32:30;11.70;14.40
702;DHT22;334;48.808;9.222;2022-11-18T03:33:36;11.70;14.40
702;DHT22;334;48.808;9.222;2022-11-18T03:34:43;11.60;14.60
702;DHT22;334;48.808;9.222;2022-11-18T03:35:46;11.60;15.00
702;DHT22;334;48.808;9.222;2022-11-18T03:36:53;11.60;15.50
702;DHT22;334;48.808;9.222;2022-11-18T03:38:13;11.60;15.80
702;DHT22;334;48.808;9.222;2022-11-18T03:39:18;11.60;15.10
702;DHT22;334;48.808;9.222;2022-11-18T03:40:25;11.60;15.30
702;DHT22;334;48.808;9.222;2022-11-18T03:41:30;11.60;15.30
702;DHT22;334;48.808;9.222;2022-11-18T03:42:42;11.60;14.90
702;DHT22;334;48.808;9.222;2022-11-18T03:43:55;11.60;14.80
702;DHT22;334;48.808;9.222;2022-11-18T03:45:05;11.60;15.20
702;DHT22;334;48.808;9.222;2022-11-18T03:46:15;11.60;15.20
702;DHT22;334;48.808;9.222;2022-11-18T03:47:27;11.60;14.80
702;DHT22;334;48.808;9.222;2022-11-18T03:48:34;11.60;14.40
702;DHT22;334;48.808;9.222;2022-11-18T03:49:48;11.60;14.70
702;DHT22;334;48.808;9.222;2022-11-18T03:51:00;11.60;15.00
702;DHT22;334;48.808;9.222;2022-11-18T03:52:10;11.60;13.90
702;DHT22;334;48.808;9.222;2022-11-18T03:53:15;11.50;14.10
702;DHT22;334;48.808;9.222;2022-11-18T03:54:22;11.50;14.60
702;DHT22;334;48.808;9.222;2022-11-18T03:55:30;11.50;14.40
702;DHT22;334;48.808;9.222;2022-11-18T03:56:37;11.50;15.10
702;DHT22;334;48.808;9.222;2022-11-18T03:58:09;11.40;14.40
702;DHT22;334;48.808;9.222;2022-11-18T03:59:19;11.40;14.80
702;DHT22;334;48.808;9.222;2022-11-18T04:00:25;11.30;13.80
702;DHT22;334;48.808;9.222;2022-11-18T04:01:42;11.30;14.40
702;DHT22;334;48.808;9.222;2022-11-18T04:02:47;11.30;14.50
702;DHT22;334;48.808;9.222;2022-11-18T04:03:50;11.30;14.90
702;DHT22;334;48.808;9.222;2022-11-18T04:04:53;11.30;14.90
702;DHT22;334;48.808;9.222;2022-11-18T04:06:04;11.20;15.30
702;DHT22;334;48.808;9.222;2022-11-18T04:07:30;11.20;15.30
702;DHT22;334;48.808;9.222;2022-11-18T04:08:36;11.20;15.70
702;DHT22;334;48.808;9.222;2022-11-18T04:09:46;11.20;16.20
702;DHT22;334;48.808;9.222;2022-11-18T04:10:58;11.20;16.00
702;DHT22;334;48.808;9.222;2022-11-18T04:12:12;11.20;16.00
702;DHT22;334;48.808;9.222;2022-11-18T04:13:24;11.30;16.00
702;DHT22;334;48.808;9.222;2022-11-18T04:14:27;11.30;16.10
702;DHT22;334;48.808;9.222;2022-11-18T04:15:30;11.30;16.30
702;DHT22;334;48.808;9.222;2022-11-18T04:16:41;11.30;16.10
702;DHT22;334;48.808;9.222;2022-11-18T04:17:43;11.30;16.50
702;DHT22;334;48.808;9.222;2022-11-18T04:18:45;11.30;16.40
702;DHT22;334;48.808;9.222;2022-11-18T04:19:48;11.40;16.40
702;DHT22;334;48.808;9.222;2022-11-18T04:20:50;11.40;16.60
702;DHT22;334;48.808;9.222;2022-11-18T04:21:53;11.40;16.90
702;DHT22;334;48.808;9.222;2022-11-18T04:22:55;11.50;17.00
702;DHT22;334;48.808;9.222;2022-11-18T04:23:59;11.50;16.70
702;DHT22;334;48.808;9.222;2022-11-18T04:25:00;11.50;16.70
702;DHT22;334;48.808;9.222;2022-11-18T04:26:04;11.50;16.30
702;DHT22;334;48.808;9.222;2022-11-18T04:27:07;11.50;16.20
702;DHT22;334;48.808;9.222;2022-11-18T04:28:09;11.50;15.90
702;DHT22;334;48.808;9.222;2022-11-18T04:29:11;11.60;15.30
702;DHT22;334;48.808;9.222;2022-11-18T04:30:13;11.60;15.20
702;DHT22;334;48.808;9.222;2022-11-18T04:31:14;11.60;15.20
702;DHT22;334;48.808;9.222;2022-11-18T04:32:16;11.60;14.70
702;DHT22;334;48.808;9.222;2022-11-18T04:33:18;11.60;14.20
702;DHT22;334;48.808;9.222;2022-11-18T04:34:20;11.60;13.80
702;DHT22;334;48.808;9.222;2022-11-18T04:35:22;11.60;12.70
702;DHT22;334;48.808;9.222;2022-11-18T04:36:23;11.50;11.50
702;DHT22;334;48.808;9.222;2022-11-18T04:37:25;11.50;12.10
702;DHT22;334;48.808;9.222;2022-11-18T04:38:27;11.50;11.70
702;DHT22;334;48.808;9.222;2022-11-18T04:39:29;11.50;12.00
702;DHT22;334;48.808;9.222;2022-11-18T04:40:31;11.50;12.00
702;DHT22;334;48.808;9.222;2022-11-18T04:41:33;11.50;12.10
702;DHT22;334;48.808;9.222;2022-11-18T04:42:53;11.40;12.10
702;DHT22;334;48.808;9.222;2022-11-18T04:43:55;11.40;12.40
702;DHT22;334;48.808;9.222;2022-11-18T04:44:57;11.40;12.20
702;DHT22;334;48.808;9.222;2022-11-18T04:45:59;11.40;12.10
702;DHT22;334;48.808;9.222;2022-11-18T04:47:03;11.30;12.30
702;DHT22;334;48.808;9.222;2022-11-18T04:48:06;11.30;11.70
702;DHT22;334;48.808;9.222;2022-11-18T04:49:09;11.20;11.40
702;DHT22;334;48.808;9.222;2022-11-18T04:50:13;11.20;12.20
702;DHT22;334;48.808;9.222;2022-11-18T04:51:15;11.20;12.70
702;DHT22;334;48.808;9.222;2022-11-18T04:52:18;11.10;13.00
702;DHT22;334;48.808;9.222;2022-11-18T04:53:20;11.10;11.90
702;DHT22;334;48.808;9.222;2022-11-18T04:54:23;11.10;11.80
702;DHT22;334;48.808;9.222;2022-11-18T04:55:25;11.00;11.20
702;DHT22;334;48.808;9.222;2022-11-18T04:56:28;11.00;11.20
702;DHT22;334;48.808;9.222;2022-11-18T04:57:30;11.00;11.40
702;DHT22;334;48.808;9.222;2022-11-18T04:58:32;11.00;11.70
702;DHT22;334;48.808;9.222;2022-11-18T04:59:40;11.00;11.50
702;DHT22;334;48.808;9.222;2022-11-18T05:00:41;11.00;11.50
702;DHT22;334;48.808;9.222;2022-11-18T05:01:43;11.00;11.50
702;DHT22;334;48.808;9.222;2022-11-18T05:02:45;11.00;11.50
702;DHT22;334;48.808;9.222;2022-11-18T05:03:48;11.00;11.20
702;DHT22;334;48.808;9.222;2022-11-18T05:04:51;11.00;11.40
702;DHT22;334;48.808;9.222;2022-11-18T05:05:53;11.00;11.20
702;DHT22;334;48.808;9.222;2022-11-18T05:06:55;10.90;11.40
702;DHT22;334;48.808;9.222;2022-11-18T05:07:57;10.90;11.60
702;DHT22;334;48.808;9.222;2022-11-18T05:09:00;10.90;11.50
702;DHT22;334;48.808;9.222;2022-11-18T05:10:02;10.90;12.60
702;DHT22;334;48.808;9.222;2022-11-18T05:11:07;10.90;11.90
702;DHT22;334;48.808;9.222;2022-11-18T05:12:27;10.90;12.10
702;DHT22;334;48.808;9.222;2022-11-18T05:13:49;10.90;12.70
702;DHT22;334;48.808;9.222;2022-11-18T05:14:51;10.90;12.50
702;DHT22;334;48.808;9.222;2022-11-18T05:15:55;10.90;12.70
702;DHT22;334;48.808;9.222;2022-11-18T05:16:58;10.90;12.90
702;DHT22;334;48.808;9.222;2022-11-18T05:18:01;10.90;13.10
702;DHT22;334;48.808;9.222;2022-11-18T05:19:04;10.90;12.50
702;DHT22;334;48.808;9.222;2022-11-18T05:20:06;10.90;13.40
702;DHT22;334;48.808;9.222;2022-11-18T05:21:08;10.90;13.30
702;DHT22;334;48.808;9.222;2022-11-18T05:22:10;10.90;12.90
702;DHT22;334;48.808;9.222;2022-11-18T05:23:12;10.90;13.20
702;DHT22;334;48.808;9.222;2022-11-18T05:24:15;10.90;13.30
702;DHT22;334;48.808;9.222;2022-11-18T05:25:17;11.00;13.40
702;DHT22;334;48.808;9.222;2022-11-18T05:26:19;11.00;13.40
702;DHT22;334;48.808;9.222;2022-11-18T05:27:21;11.00;13.40
702;DHT22;334;48.808;9.222;2022-11-18T05:28:23;11.20;13.50
702;DHT22;334;48.808;9.222;2022-11-18T05:29:25;11.00;13.40
702;DHT22;334;48.808;9.222;2022-11-18T05:30:27;11.00;13.40
702;DHT22;334;48.808;9.222;2022-11-18T05:31:29;11.00;13.40
702;DHT22;334;48.808;9.222;2022-11-18T05:32:33;11.00;13.40
702;DHT22;334;48.808;9.222;2022-11-18T05:33:35;10.90;13.20
702;DHT22;334;48.808;9.222;2022-11-18T05:34:39;10.90;13.30
702;DHT22;334;48.808;9.222;2022-11-18T05:35:41;10.90;13.30
702;DHT22;334;48.808;9.222;2022-11-18T05:36:44;10.90;13.70
702;DHT22;334;48.808;9.222;2022-11-18T05:37:46;10.90;13.70
702;DHT22;334;48.808;9.222;2022-11-18T05:38:49;10.90;14.00
702;DHT22;334;48.808;9.222;2022-11-18T05:39:52;10.90;13.90
702;DHT22;334;48.808;9.222;2022-11-18T05:40:54;10.90;13.90
702;DHT22;334;48.808;9.222;2022-11-18T05:41:56;11.00;13.90
702;DHT22;334;48.808;9.222;2022-11-18T05:43:17;11.00;13.90
702;DHT22;334;48.808;9.222;2022-11-18T05:44:19;11.00;14.20
702;DHT22;334;48.808;9.222;2022-11-18T05:45:21;11.00;14.00
702;DHT22;334;48.808;9.222;2022-11-18T05:46:22;11.00;14.30
702;DHT22;334;48.808;9.222;2022-11-18T05:47:27;11.00;13.80
702;DHT22;334;48.808;9.222;2022-11-18T05:48:52;11.00;13.50
702;DHT22;334;48.808;9.222;2022-11-18T05:49:54;11.10;13.40
702;DHT22;334;48.808;9.222;2022-11-18T05:50:56;11.10;13.40
702;DHT22;334;48.808;9.222;2022-11-18T05:51:58;11.10;13.40
702;DHT22;334;48.808;9.222;2022-11-18T05:53:01;11.10;13.40
702;DHT22;334;48.808;9.222;2022-11-18T05:54:07;11.10;13.00
702;DHT22;334;48.808;9.222;2022-11-18T05:55:11;11.10;13.10
702;DHT22;334;48.808;9.222;2022-11-18T05:56:39;11.10;12.90
702;DHT22;334;48.808;9.222;2022-11-18T05:57:43;11.10;13.30
702;DHT22;334;48.808;9.222;2022-11-18T05:58:44;11.10;13.20
702;DHT22;334;48.808;9.222;2022-11-18T05:59:46;11.10;12.90
702;DHT22;334;48.808;9.222;2022-11-18T06:01:05;11.20;13.30
702;DHT22;334;48.808;9.222;2022-11-18T06:02:15;11.20;13.50
702;DHT22;334;48.808;9.222;2022-11-18T06:03:23;11.20;13.00
702;DHT22;334;48.808;9.222;2022-11-18T06:04:40;11.20;13.10
702;DHT22;334;48.808;9.222;2022-11-18T06:05:45;11.20;13.00
702;DHT22;334;48.808;9.222;2022-11-18T06:06:48;11.20;13.10
702;DHT22;334;48.808;9.222;2022-11-18T06:07:53;11.20;13.50
702;DHT22;334;48.808;9.222;2022-11-18T06:09:01;11.20;13.40
702;DHT22;334;48.808;9.222;2022-11-18T06:10:04;11.20;13.50
702;DHT22;334;48.808;9.222;2022-11-18T06:11:09;11.20;13.30
702;DHT22;334;48.808;9.222;2022-11-18T06:12:15;11.20;13.50
702;DHT22;334;48.808;9.222;2022-11-18T06:13:22;11.30;13.60
702;DHT22;334;48.808;9.222;2022-11-18T06:14:37;11.30;13.50
702;DHT22;334;48.808;9.222;2022-11-18T06:15:41;11.30;12.80
702;DHT22;334;48.808;9.222;2022-11-18T06:16:47;11.30;12.90
702;DHT22;334;48.808;9.222;2022-11-18T06:17:55;11.30;13.20
702;DHT22;334;48.808;9.222;2022-11-18T06:18:58;11.30;12.40
702;DHT22;334;48.808;9.222;2022-11-18T06:20:02;11.30;12.70
702;DHT22;334;48.808;9.222;2022-11-18T06:21:05;11.30;12.80
702;DHT22;334;48.808;9.222;2022-11-18T06:22:07;11.30;12.70
702;DHT22;334;48.808;9.222;2022-11-18T06:23:12;11.30;12.70
702;DHT22;334;48.808;9.222;2022-11-18T06:24:16;11.30;12.60
702;DHT22;334;48.808;9.222;2022-11-18T06:25:19;11.30;12.60
702;DHT22;334;48.808;9.222;2022-11-18T06:26:21;11.30;12.20
702;DHT22;334;48.808;9.222;2022-11-18T06:27:23;11.30;12.20
702;DHT22;334;48.808;9.222;2022-11-18T06:28:35;11.30;12.00
702;DHT22;334;48.808;9.222;2022-11-18T06:29:37;11.30;12.50
702;DHT22;334;48.808;9.222;2022-11-18T06:30:39;11.30;12.70
702;DHT22;334;48.808;9.222;2022-11-18T06:31:41;11.40;12.80
702;DHT22;334;48.808;9.222;2022-11-18T06:32:43;11.30;12.20
702;DHT22;334;48.808;9.222;2022-11-18T06:33:45;11.30;11.70
702;DHT22;334;48.808;9.222;2022-11-18T06:34:47;11.30;11.70
702;DHT22;334;48.808;9.222;2022-11-18T06:35:52;11.30;11.80
702;DHT22;334;48.808;9.222;2022-11-18T06:36:54;11.30;11.70
702;DHT22;334;48.808;9.222;2022-11-18T06:37:56;11.30;11.40
702;DHT22;334;48.808;9.222;2022-11-18T06:39:05;11.30;11.10
702;DHT22;334;48.808;9.222;2022-11-18T06:40:07;11.30;11.20
702;DHT22;334;48.808;9.222;2022-11-18T06:41:11;11.30;11.30
702;DHT22;334;48.808;9.222;2022-11-18T06:42:17;11.30;11.10
702;DHT22;334;48.808;9.222;2022-11-18T06:43:39;11.30;11.20
702;DHT22;334;48.808;9.222;2022-11-18T06:44:43;11.30;10.90
702;DHT22;334;48.808;9.222;2022-11-18T06:45:45;11.30;11.00
702;DHT22;334;48.808;9.222;2022-11-18T06:47:10;11.30;11.00
702;DHT22;334;48.808;9.222;2022-11-18T06:48:11;11.30;10.70
702;DHT22;334;48.808;9.222;2022-11-18T06:49:15;11.30;10.80
702;DHT22;334;48.808;9.222;2022-11-18T06:50:18;11.30;10.80
702;DHT22;334;48.808;9.222;2022-11-18T06:51:20;11.30;11.20
702;DHT22;334;48.808;9.222;2022-11-18T06:52:23;11.30;11.30
702;DHT22;334;48.808;9.222;2022-11-18T06:53:25;11.30;11.10
702;DHT22;334;48.808;9.222;2022-11-18T06:54:27;11.30;11.10
702;DHT22;334;48.808;9.222;2022-11-18T06:55:33;11.30;11.10
702;DHT22;334;48.808;9.222;2022-11-18T06:56:35;11.30;10.80
702;DHT22;334;48.808;9.222;2022-11-18T06:57:37;11.30;11.60
702;DHT22;334;48.808;9.222;2022-11-18T06:58:40;11.30;11.20
702;DHT22;334;48.808;9.222;2022-11-18T06:59:42;11.30;11.10
702;DHT22;334;48.808;9.222;2022-11-18T07:00:44;11.30;10.90
702;DHT22;334;48.808;9.222;2022-11-18T07:01:47;11.30;11.00
702;DHT22;334;48.808;9.222;2022-11-18T07:02:49;11.30;10.90
702;DHT22;334;48.808;9.222;2022-11-18T07:03:51;11.40;10.90
702;DHT22;334;48.808;9.222;2022-11-18T07:04:53;11.30;10.70
702;DHT22;334;48.808;9.222;2022-11-18T07:05:55;11.30;10.40
702;DHT22;334;48.808;9.222;2022-11-18T07:07:01;11.30;10.20
702;DHT22;334;48.808;9.222;2022-11-18T07:08:05;11.30;9.70
702;DHT22;334;48.808;9.222;2022-11-18T07:09:07;11.30;9.70
702;DHT22;334;48.808;9.222;2022-11-18T07:10:12;11.30;10.30
702;DHT22;334;48.808;9.222;2022-11-18T07:11:18;11.40;11.00
702;DHT22;334;48.808;9.222;2022-11-18T07:12:20;11.40;11.90
702;DHT22;334;48.808;9.222;2022-11-18T07:13:22;11.40;12.00
702;DHT22;334;48.808;9.222;2022-11-18T07:14:24;11.40;11.20
702;DHT22;334;48.808;9.222;2022-11-18T07:15:26;11.40;10.60
702;DHT22;334;48.808;9.222;2022-11-18T07:16:28;11.40;10.90
702;DHT22;334;48.808;9.222;2022-11-18T07:17:30;11.40;11.30
702;DHT22;334;48.808;9.222;2022-11-18T07:18:39;11.60;11.30
702;DHT22;334;48.808;9.222;2022-11-18T07:19:42;11.40;10.60
702;DHT22;334;48.808;9.222;2022-11-18T07:20:43;11.40;9.80
702;DHT22;334;48.808;9.222;2022-11-18T07:21:45;11.40;9.80
702;DHT22;334;48.808;9.222;2022-11-18T07:22:51;11.40;10.30
702;DHT22;334;48.808;9.222;2022-11-18T07:23:54;11.40;10.30
702;DHT22;334;48.808;9.222;2022-11-18T07:24:57;11.40;10.00
702;DHT22;334;48.808;9.222;2022-11-18T07:25:59;11.40;10.30
702;DHT22;334;48.808;9.222;2022-11-18T07:27:01;11.60;10.20
702;DHT22;334;48.808;9.222;2022-11-18T07:28:03;11.40;9.80
702;DHT22;334;48.808;9.222;2022-11-18T07:29:05;11.40;9.80
702;DHT22;334;48.808;9.222;2022-11-18T07:30:07;11.40;9.80
702;DHT22;334;48.808;9.222;2022-11-18T07:31:13;11.40;9.80
702;DHT22;334;48.808;9.222;2022-11-18T07:32:15;11.30;9.70
702;DHT22;334;48.808;9.222;2022-11-18T07:33:17;11.40;9.80
702;DHT22;334;48.808;9.222;2022-11-18T07:34:19;11.30;10.00
702;DHT22;334;48.808;9.222;2022-11-18T07:35:21;11.40;10.00
702;DHT22;334;48.808;9.222;2022-11-18T07:36:25;11.40;10.00